Time;durP1;ratioP1;P1;durP2;ratioP2;P2;SDS_P1;SDS_P2;PMS_P1;PMS_P2;Temp;Humidity;BMP_temperature;BMP_pressure;BME280_temperature;BME280_humidity;BME280_pressure;Samples;Min_cycle;Max_cycle;Signal;HPM_P1;HPM_P2
2021/06/01 00:01:40;;;;;;;3.60;2.15;;;;;;;18.73;35.16;101821.56;4927272;28;119604;-64
2021/06/01 00:04:09;;;;;;;3.42;2.30;;;;;;;18.71;35.37;101820.78;4928895;28;119572;-64
2021/06/01 00:06:38;;;;;;;3.85;2.10;;;;;;;18.70;35.37;101818.19;4928740;28;124009;-64
2021/06/01 00:09:08;;;;;;;3.15;2.00;;;;;;;18.68;35.27;101815.59;4928741;28;123608;-64
2021/06/01 00:11:36;;;;;;;3.55;1.98;;;;;;;18.68;35.26;101820.97;4929269;28;118920;-64
2021/06/01 00:14:05;;;;;;;3.15;2.13;;;;;;;18.68;35.50;101818.28;4924824;28;117776;-64
2021/06/01 00:16:33;;;;;;;5.07;1.98;;;;;;;18.66;35.41;101820.22;4927235;28;124332;-64
2021/06/01 00:19:00;;;;;;;2.78;2.03;;;;;;;18.65;35.65;101818.50;4926346;28;124568;-64
2021/06/01 00:21:27;;;;;;;3.20;2.10;;;;;;;18.64;35.79;101820.31;4927997;28;119366;-64
2021/06/01 00:23:55;;;;;;;4.22;2.08;;;;;;;18.62;36.00;101813.31;4928269;28;119078;-64
2021/06/01 00:26:22;;;;;;;3.28;2.15;;;;;;;18.61;36.09;101814.25;4929558;28;124863;-64
2021/06/01 00:28:52;;;;;;;2.47;1.90;;;;;;;18.57;36.12;101812.75;4927907;28;122722;-64
2021/06/01 00:31:20;;;;;;;3.47;2.20;;;;;;;18.54;36.04;101807.59;4925115;28;120854;-64
2021/06/01 00:33:47;;;;;;;3.97;1.80;;;;;;;18.51;36.05;101807.78;4928391;28;119874;-64
2021/06/01 00:36:16;;;;;;;3.10;1.90;;;;;;;18.48;36.25;101808.84;4927884;28;124354;-64
2021/06/01 00:38:44;;;;;;;2.95;1.80;;;;;;;18.46;36.26;101811.63;4928221;28;123750;-64
2021/06/01 00:41:11;;;;;;;3.88;1.90;;;;;;;18.43;36.31;101817.16;4927934;28;119338;-64
2021/06/01 00:43:38;;;;;;;5.03;1.90;;;;;;;18.40;36.24;101812.00;4929918;28;119728;-65
2021/06/01 00:46:07;;;;;;;2.92;2.03;;;;;;;18.38;36.36;101816.56;4909573;28;123108;-65
2021/06/01 00:48:34;;;;;;;3.92;1.80;;;;;;;18.36;36.69;101820.31;4926852;28;124186;-65
2021/06/01 00:51:02;;;;;;;2.90;1.80;;;;;;;18.32;36.61;101813.44;4928789;28;119505;-65
2021/06/01 00:53:29;;;;;;;6.43;2.20;;;;;;;18.30;36.72;101813.53;4927971;28;118898;-64
2021/06/01 00:55:56;;;;;;;2.85;1.83;;;;;;;18.28;36.59;101818.97;4929586;28;124640;-64
2021/06/01 00:58:25;;;;;;;4.95;2.10;;;;;;;18.25;36.70;101812.94;4929907;28;125509;-64
2021/06/01 01:03:28;;;;;;;3.13;2.17;;;;;;;18.19;36.93;101824.06;4926965;28;119240;-64
2021/06/01 01:06:03;;;;;;;3.58;2.10;;;;;;;18.15;37.06;101819.84;4928575;28;124176;-64
2021/06/01 01:08:53;;;;;;;2.85;1.77;;;;;;;18.12;37.11;101817.34;4927209;28;124234;-64
2021/06/01 01:11:33;;;;;;;3.30;1.70;;;;;;;18.08;36.95;101822.91;4926903;28;119391;-64
2021/06/01 01:14:22;;;;;;;3.53;1.98;;;;;;;18.03;37.12;101819.63;4928616;28;118699;-65
2021/06/01 01:17:13;;;;;;;4.80;2.42;;;;;;;18.01;37.24;101826.91;4926491;28;124172;-66
2021/06/01 01:20:08;;;;;;;3.15;2.15;;;;;;;17.97;37.21;101819.13;4931786;28;124270;-65
2021/06/01 01:22:44;;;;;;;6.93;2.20;;;;;;;17.93;37.33;101823.81;4927244;28;120291;-64
2021/06/01 01:25:28;;;;;;;3.72;2.30;;;;;;;17.89;37.30;101822.28;4927986;28;120590;-64
2021/06/01 01:27:59;;;;;;;3.70;2.10;;;;;;;17.86;37.65;101822.47;4928782;28;124210;-65
2021/06/01 01:30:37;;;;;;;4.20;2.13;;;;;;;17.83;37.86;101827.97;4925951;28;123953;-65
2021/06/01 01:33:17;;;;;;;3.55;2.20;;;;;;;17.80;37.85;101822.78;4926873;28;119685;-65
2021/06/01 01:35:47;;;;;;;5.65;2.35;;;;;;;17.79;37.98;101824.63;4927364;28;118958;-66
2021/06/01 01:38:15;;;;;;;3.63;2.20;;;;;;;17.80;37.92;101814.75;4927052;28;124076;-65
2021/06/01 01:40:45;;;;;;;5.43;2.08;;;;;;;17.78;37.95;101813.97;4928641;28;122753;-64
2021/06/01 01:43:16;;;;;;;5.35;2.40;;;;;;;17.77;38.11;101817.63;4928333;28;119439;-64
2021/06/01 01:45:52;;;;;;;3.30;2.22;;;;;;;17.75;38.11;101808.84;4926136;28;119240;-65
2021/06/01 01:51:11;;;;;;;3.17;2.47;;;;;;;17.68;38.27;101819.88;4926699;28;124173;-64
2021/06/01 01:53:49;;;;;;;4.22;2.28;;;;;;;17.66;38.27;101819.13;4928102;28;119749;-64
2021/06/01 01:56:18;;;;;;;5.25;2.55;;;;;;;17.64;38.38;101815.66;4926259;28;118700;-65
2021/06/01 01:58:48;;;;;;;4.18;2.35;;;;;;;17.59;38.38;101809.72;4925550;28;124564;-64
2021/06/01 02:01:17;;;;;;;8.07;2.85;;;;;;;17.56;38.40;101809.06;4929792;28;123864;-65
2021/06/01 02:03:45;;;;;;;6.07;2.53;;;;;;;17.53;38.57;101810.09;4928957;28;119422;-65
2021/06/01 02:06:12;;;;;;;4.43;2.53;;;;;;;17.51;38.76;101806.63;4957437;23;119291;-66
2021/06/01 02:08:41;;;;;;;4.40;2.60;;;;;;;17.49;38.90;101804.03;4949149;28;124506;-67
2021/06/01 02:11:09;;;;;;;7.70;2.63;;;;;;;17.49;38.96;101808.53;4949150;28;124275;-66
2021/06/01 02:13:42;;;;;;;5.00;2.72;;;;;;;17.48;38.80;101806.84;4946653;28;120324;-66
2021/06/01 02:16:09;;;;;;;6.88;2.63;;;;;;;17.47;38.87;101805.94;4947226;28;120965;-66
2021/06/01 02:18:36;;;;;;;5.53;3.00;;;;;;;17.44;39.01;101797.22;4949212;28;123149;-66
2021/06/01 02:21:08;;;;;;;6.28;2.78;;;;;;;17.41;39.26;101803.66;4949942;28;123980;-66
2021/06/01 02:23:50;;;;;;;5.18;2.90;;;;;;;17.39;39.31;101812.72;4949457;28;119548;-66
2021/06/01 02:26:30;;;;;;;4.88;3.22;;;;;;;17.36;39.33;101805.72;4949270;28;118069;-66
2021/06/01 02:29:03;;;;;;;4.82;3.08;;;;;;;17.35;39.45;101811.16;4948352;28;123919;-66
2021/06/01 02:31:35;;;;;;;5.88;2.95;;;;;;;17.32;39.37;101813.06;4947056;28;123908;-66
2021/06/01 02:34:02;;;;;;;6.07;2.67;;;;;;;17.30;39.46;101809.63;4950915;28;119607;-66
2021/06/01 02:36:31;;;;;;;5.45;3.00;;;;;;;17.27;39.39;101803.56;4947616;28;119320;-67
2021/06/01 02:38:59;;;;;;;4.65;3.03;;;;;;;17.25;39.68;101808.16;4947284;28;125341;-66
2021/06/01 02:41:26;;;;;;;6.70;2.95;;;;;;;17.21;39.76;101810.16;4949807;28;122217;-66
2021/06/01 02:43:53;;;;;;;7.40;3.00;;;;;;;17.18;39.84;101810.34;4949413;28;120159;-66
2021/06/01 02:46:20;;;;;;;5.05;3.00;;;;;;;17.15;40.12;101805.16;4948215;28;118972;-66
2021/06/01 02:48:48;;;;;;;3.80;2.53;;;;;;;17.10;40.19;101812.56;4946394;28;124216;-67
2021/06/01 02:51:18;;;;;;;6.20;2.97;;;;;;;17.08;40.04;101809.13;4948694;28;124196;-66
2021/06/01 02:53:52;;;;;;;4.10;2.60;;;;;;;17.05;40.13;101809.31;4949327;28;119667;-66
2021/06/01 02:56:20;;;;;;;5.13;2.80;;;;;;;17.02;40.29;101817.50;4950819;28;119320;-66
2021/06/01 02:58:49;;;;;;;5.65;3.15;;;;;;;16.99;40.43;101809.63;4947969;28;124083;-67
2021/06/01 03:01:20;;;;;;;5.30;2.97;;;;;;;16.96;40.50;101807.16;4953168;28;96763;-66
2021/06/01 03:03:50;;;;;;;5.35;2.85;;;;;;;16.94;40.47;101801.88;4950693;28;121002;-66
2021/06/01 03:06:19;;;;;;;5.25;3.15;;;;;;;16.92;40.61;101804.66;4948245;28;120599;-66
2021/06/01 03:08:47;;;;;;;6.82;3.55;;;;;;;16.90;40.66;101795.84;4947642;28;124773;-66
2021/06/01 03:11:16;;;;;;;4.95;2.83;;;;;;;16.87;40.82;101796.00;4949908;28;122970;-66
2021/06/01 03:13:45;;;;;;;6.15;3.00;;;;;;;16.85;40.86;101803.25;4948281;28;119238;-67
2021/06/01 03:16:13;;;;;;;4.38;2.78;;;;;;;16.81;40.86;101793.66;4948188;28;119082;-66
2021/06/01 03:18:41;;;;;;;6.55;3.20;;;;;;;16.79;40.86;101797.38;4949503;28;124752;-66
2021/06/01 03:21:13;;;;;;;5.45;3.10;;;;;;;16.75;41.03;101785.97;4945821;28;124875;-67
2021/06/01 03:23:41;;;;;;;6.72;3.20;;;;;;;16.74;40.82;101794.94;4949757;28;119198;-67
2021/06/01 03:26:09;;;;;;;5.38;3.28;;;;;;;16.71;41.29;101797.81;4945353;28;120788;-66
2021/06/01 03:28:36;;;;;;;5.47;3.33;;;;;;;16.69;41.16;101802.38;4949684;28;124158;-66
2021/06/01 03:31:05;;;;;;;4.40;3.15;;;;;;;16.66;41.39;101807.88;4948117;28;123749;-66
2021/06/01 03:33:34;;;;;;;7.03;3.60;;;;;;;16.64;41.43;101804.44;4949562;28;119868;-66
2021/06/01 03:36:02;;;;;;;5.97;3.10;;;;;;;16.62;41.43;101803.66;4947686;28;119104;-66
2021/06/01 03:38:31;;;;;;;6.50;3.28;;;;;;;16.60;41.51;101808.22;4946679;28;123712;-67
2021/06/01 03:40:58;;;;;;;8.50;3.75;;;;;;;16.58;41.44;101804.78;4963724;28;124824;-67
2021/06/01 03:43:26;;;;;;;6.65;3.38;;;;;;;16.57;41.67;101805.72;4951362;28;119633;-66
2021/06/01 03:45:53;;;;;;;8.23;4.05;;;;;;;16.55;41.65;101809.31;4948676;28;119445;-66
2021/06/01 03:48:20;;;;;;;9.40;4.20;;;;;;;16.54;41.86;101815.63;4949228;28;123803;-68
2021/06/01 03:50:47;;;;;;;11.10;3.90;;;;;;;16.54;41.88;101809.44;4966120;28;122760;-69
2021/06/01 03:53:14;;;;;;;9.40;4.13;;;;;;;16.52;41.73;101812.19;4947936;28;120255;-68
2021/06/01 03:55:41;;;;;;;8.10;3.63;;;;;;;16.51;41.93;101807.75;4951273;28;119622;-68
2021/06/01 03:58:09;;;;;;;10.38;3.78;;;;;;;16.51;41.94;101809.59;4950391;28;124060;-69
2021/06/01 04:00:36;;;;;;;5.40;3.33;;;;;;;16.50;42.00;101808.72;4946422;28;124707;-68
2021/06/01 04:03:03;;;;;;;7.35;3.83;;;;;;;16.49;42.25;101808.81;4948511;28;120090;-69
2021/06/01 04:05:31;;;;;;;8.18;3.88;;;;;;;16.47;42.11;101808.03;4949985;28;118936;-68
2021/06/01 04:07:58;;;;;;;6.13;3.40;;;;;;;16.45;42.25;101805.44;4950264;28;124217;-68
2021/06/01 04:10:25;;;;;;;7.43;3.58;;;;;;;16.44;42.47;101809.03;4951130;28;124162;-68
2021/06/01 04:12:53;;;;;;;7.90;3.67;;;;;;;16.43;42.60;101806.47;4948330;28;119119;-68
2021/06/01 04:15:20;;;;;;;8.50;3.72;;;;;;;16.41;42.61;101808.38;4943349;28;118761;-68
2021/06/01 04:17:48;;;;;;;7.75;3.72;;;;;;;16.41;42.74;101803.88;4949315;28;124123;-68
2021/06/01 04:20:18;;;;;;;7.40;3.50;;;;;;;16.42;42.77;101802.06;4949928;28;124265;-68
2021/06/01 04:22:46;;;;;;;7.30;3.60;;;;;;;16.42;42.87;101805.59;4946536;28;119693;-68
2021/06/01 04:25:14;;;;;;;8.32;3.88;;;;;;;16.43;43.14;101807.34;4950881;28;118571;-68
2021/06/01 04:27:41;;;;;;;6.28;3.60;;;;;;;16.45;43.14;101809.94;4949165;28;124472;-68
2021/06/01 04:30:09;;;;;;;8.48;3.97;;;;;;;16.45;43.47;101816.13;4948313;28;123248;-68
2021/06/01 04:32:36;;;;;;;12.65;4.22;;;;;;;16.48;43.47;101810.63;4946525;28;119209;-67
2021/06/01 04:35:04;;;;;;;6.28;4.22;;;;;;;16.50;43.56;101811.41;4950285;28;119176;-68
2021/06/01 04:37:31;;;;;;;8.43;4.10;;;;;;;16.55;43.66;101812.00;4946864;28;124373;-68
2021/06/01 04:39:58;;;;;;;6.63;4.13;;;;;;;16.57;43.88;101819.09;4947700;28;124294;-68
2021/06/01 04:42:25;;;;;;;6.28;4.10;;;;;;;16.60;44.01;101818.94;4946851;28;121014;-68
2021/06/01 04:44:53;;;;;;;6.53;4.75;;;;;;;16.63;44.26;101814.28;4947243;28;120607;-67
2021/06/01 04:47:20;;;;;;;8.27;4.43;;;;;;;16.67;44.46;101812.28;4946975;28;124465;-67
2021/06/01 04:49:48;;;;;;;7.55;3.92;;;;;;;16.72;44.60;101810.22;4946107;28;124030;-67
2021/06/01 04:52:16;;;;;;;9.23;4.40;;;;;;;16.79;44.72;101808.94;4947640;28;119313;-69
2021/06/01 04:54:43;;;;;;;7.93;4.20;;;;;;;16.84;44.45;101806.91;4948282;28;119102;-68
2021/06/01 04:57:11;;;;;;;10.85;4.88;;;;;;;16.91;44.44;101807.41;4945278;28;123396;-68
2021/06/01 04:59:38;;;;;;;10.43;4.78;;;;;;;16.98;44.60;101808.78;4948009;28;124017;-68
2021/06/01 05:02:06;;;;;;;9.43;4.10;;;;;;;17.06;44.43;101803.84;4947405;28;120285;-68
2021/06/01 05:04:33;;;;;;;8.30;4.22;;;;;;;17.12;44.47;101805.31;4950006;28;119712;-68
2021/06/01 05:07:01;;;;;;;10.45;4.25;;;;;;;17.19;44.61;101806.69;4947673;28;123847;-69
2021/06/01 05:09:28;;;;;;;9.73;4.50;;;;;;;17.24;44.45;101801.94;4948059;28;124739;-68
2021/06/01 05:11:55;;;;;;;10.25;4.20;;;;;;;17.31;44.65;101808.69;4948901;28;119612;-68
2021/06/01 05:14:23;;;;;;;10.93;4.80;;;;;;;17.40;44.71;101809.09;4949317;28;119767;-68
2021/06/01 05:16:50;;;;;;;9.85;4.85;;;;;;;17.47;44.65;101805.09;4949539;28;124493;-66
2021/06/01 05:19:17;;;;;;;9.73;4.65;;;;;;;17.55;44.59;101808.19;4948304;28;123950;-66
2021/06/01 05:21:45;;;;;;;9.73;4.50;;;;;;;17.61;44.64;101802.47;4947688;28;119613;-66
2021/06/01 05:24:12;;;;;;;8.60;4.60;;;;;;;17.68;44.54;101798.44;4947060;28;119372;-66
2021/06/01 05:26:41;;;;;;;9.43;4.60;;;;;;;17.75;44.27;101803.47;4947152;28;124443;-66
2021/06/01 05:29:08;;;;;;;9.02;4.63;;;;;;;17.82;44.18;101799.44;4948134;28;123890;-66
2021/06/01 05:31:58;;;;;;;8.50;4.30;;;;;;;17.89;43.94;101795.47;4949433;28;120116;-66
2021/06/01 05:34:28;;;;;;;9.85;4.30;;;;;;;17.97;43.58;101798.56;4947799;28;120282;-66
2021/06/01 05:36:55;;;;;;;7.60;4.53;;;;;;;18.05;43.66;101796.28;4945568;28;123129;-66
2021/06/01 05:39:22;;;;;;;7.97;4.60;;;;;;;18.13;43.70;101797.63;4963548;28;124639;-66
2021/06/01 05:41:49;;;;;;;6.97;4.55;;;;;;;18.22;43.65;101791.69;4949128;28;119404;-66
2021/06/01 05:44:17;;;;;;;9.70;5.00;;;;;;;18.30;43.66;101794.75;4949492;28;119098;-67
2021/06/01 05:46:44;;;;;;;8.75;4.47;;;;;;;18.39;43.36;101791.50;4947712;28;124170;-66
2021/06/01 05:49:11;;;;;;;7.63;4.43;;;;;;;18.47;43.30;101791.84;4946580;28;123711;-66
2021/06/01 05:51:38;;;;;;;10.38;4.60;;;;;;;18.57;43.32;101793.97;4948397;28;119172;-66
2021/06/01 05:54:07;;;;;;;8.50;4.38;;;;;;;18.68;43.07;101799.50;4947393;28;119087;-66
2021/06/01 05:56:35;;;;;;;9.07;4.70;;;;;;;18.80;42.99;101793.41;4963768;28;123907;-66
2021/06/01 05:59:04;;;;;;;7.43;4.75;;;;;;;18.91;42.84;101781.97;4963442;28;123203;-66
2021/06/01 06:01:32;;;;;;;7.63;4.55;;;;;;;19.04;42.77;101784.69;4946890;28;119476;-67
2021/06/01 06:03:59;;;;;;;7.65;4.65;;;;;;;19.14;42.86;101780.44;4948089;28;118028;-66
2021/06/01 06:06:26;;;;;;;9.38;4.75;;;;;;;19.25;42.36;101783.28;4946925;28;124124;-66
2021/06/01 06:08:54;;;;;;;10.02;4.57;;;;;;;19.36;42.10;101789.75;4945971;28;123942;-66
2021/06/01 06:11:21;;;;;;;8.00;4.65;;;;;;;19.48;41.63;101791.63;4949151;28;119816;-66
2021/06/01 06:13:48;;;;;;;8.98;4.43;;;;;;;19.59;41.38;101791.75;4946962;28;119788;-66
2021/06/01 06:16:19;;;;;;;10.45;4.88;;;;;;;19.73;41.30;101792.66;4941651;28;124132;-66
2021/06/01 06:18:56;;;;;;;7.07;4.47;;;;;;;19.87;41.06;101797.94;4945115;28;123397;-67
2021/06/01 06:21:23;;;;;;;9.95;5.00;;;;;;;20.01;40.65;101797.84;4945338;28;120089;-67
2021/06/01 06:23:51;;;;;;;8.35;4.70;;;;;;;20.17;40.47;101788.69;4948042;28;120161;-67
2021/06/01 06:26:18;;;;;;;8.60;4.70;;;;;;;20.32;40.88;101789.44;4946849;28;124175;-67
2021/06/01 06:28:45;;;;;;;10.80;4.32;;;;;;;20.48;40.54;101791.91;4945950;28;124096;-67
2021/06/01 06:31:12;;;;;;;9.82;4.50;;;;;;;20.67;40.16;101784.25;4945654;28;119341;-67
2021/06/01 06:33:40;;;;;;;7.60;4.70;;;;;;;20.84;40.04;101792.94;4946156;28;119107;-67
2021/06/01 06:36:08;;;;;;;7.55;4.63;;;;;;;21.01;39.71;101797.94;4948094;28;124259;-67
2021/06/01 06:38:35;;;;;;;7.93;4.25;;;;;;;21.17;39.58;101795.81;4944852;28;124409;-67
2021/06/01 06:43:30;;;;;;;6.05;4.22;;;;;;;21.51;39.06;101793.31;4946959;28;119099;-67
2021/06/01 06:46:01;;;;;;;8.85;4.40;;;;;;;21.68;38.94;101785.72;4947303;28;125027;-67
2021/06/01 06:48:28;;;;;;;6.72;4.22;;;;;;;21.84;38.39;101790.81;4949767;28;124257;-67
2021/06/01 06:50:55;;;;;;;12.48;4.45;;;;;;;21.99;38.25;101789.63;4948340;28;119224;-67
2021/06/01 06:53:22;;;;;;;7.22;4.50;;;;;;;22.13;37.76;101780.41;4945524;28;119010;-67
2021/06/01 06:55:49;;;;;;;7.35;4.30;;;;;;;22.28;38.23;101778.38;4949978;28;124337;-67
2021/06/01 06:58:17;;;;;;;7.10;4.07;;;;;;;22.45;37.91;101785.13;4947103;28;123415;-67
2021/06/01 07:00:44;;;;;;;7.28;4.55;;;;;;;22.64;37.46;101779.09;4948289;28;119056;-67
2021/06/01 07:03:12;;;;;;;6.03;4.20;;;;;;;22.79;37.34;101783.22;4946076;28;119349;-67
2021/06/01 07:05:39;;;;;;;9.88;4.80;;;;;;;22.97;37.21;101780.88;4950654;28;124267;-67
2021/06/01 07:08:06;;;;;;;6.22;4.00;;;;;;;23.16;37.04;101779.38;4951007;28;124319;-67
2021/06/01 07:10:33;;;;;;;8.93;4.70;;;;;;;23.36;36.62;101789.38;4947802;28;120291;-67
2021/06/01 07:13:07;;;;;;;8.18;4.60;;;;;;;23.55;36.10;101779.69;4948690;28;120623;-67
2021/06/01 07:15:45;;;;;;;7.57;4.57;;;;;;;23.71;35.98;101780.06;4948536;28;124872;-67
2021/06/01 07:18:13;;;;;;;6.15;4.47;;;;;;;23.85;36.08;101777.09;4949471;28;124457;-67
2021/06/01 07:20:41;;;;;;;6.75;4.45;;;;;;;24.02;35.67;101777.47;4949605;28;119849;-67
2021/06/01 07:23:08;;;;;;;8.10;4.70;;;;;;;24.14;34.70;101780.94;4950082;28;119131;-67
2021/06/01 07:25:35;;;;;;;8.98;4.40;;;;;;;24.22;34.53;101776.56;4950282;28;122906;-67
2021/06/01 07:28:02;;;;;;;6.15;4.43;;;;;;;24.32;34.54;101779.31;4950726;28;123845;-68
2021/06/01 07:30:30;;;;;;;8.13;4.40;;;;;;;24.42;34.46;101774.78;4948292;28;119901;-68
2021/06/01 07:32:59;;;;;;;5.55;4.35;;;;;;;24.57;34.70;101778.00;4946804;28;118859;-68
2021/06/01 07:35:27;;;;;;;7.97;4.80;;;;;;;24.74;34.52;101783.75;4948397;28;124082;-67
2021/06/01 07:37:54;;;;;;;6.47;4.57;;;;;;;24.91;34.08;101780.38;4965105;28;123922;-67
2021/06/01 07:40:21;;;;;;;8.27;4.47;;;;;;;25.02;33.74;101780.25;4950472;28;119702;-68
2021/06/01 07:42:49;;;;;;;6.10;4.38;;;;;;;25.12;33.79;101779.41;4951214;28;119041;-67
2021/06/01 07:45:17;;;;;;;8.30;4.97;;;;;;;25.20;33.89;101782.25;4949481;28;123973;-67
2021/06/01 07:47:44;;;;;;;7.85;4.60;;;;;;;25.31;33.65;101767.72;4949438;28;123260;-68
2021/06/01 07:50:12;;;;;;;12.73;4.65;;;;;;;25.40;33.14;101770.44;4949593;28;119566;-68
2021/06/01 07:52:39;;;;;;;8.90;4.80;;;;;;;25.48;32.97;101767.00;4951295;28;119518;-68
2021/06/01 07:55:07;;;;;;;8.13;4.28;;;;;;;25.57;32.69;101770.72;4951348;28;125145;-68
2021/06/01 07:57:36;;;;;;;7.07;4.35;;;;;;;25.65;33.33;101765.41;4948825;28;123759;-68
2021/06/01 08:00:07;;;;;;;8.20;4.18;;;;;;;25.75;32.67;101763.56;4949561;28;120859;-68
2021/06/01 08:02:39;;;;;;;5.22;3.78;;;;;;;25.86;33.21;101758.94;4952220;28;120760;-68
2021/06/01 08:05:08;;;;;;;6.97;4.20;;;;;;;25.97;32.35;101761.50;4948864;28;124058;-68
2021/06/01 08:07:35;;;;;;;6.63;5.13;;;;;;;26.05;32.16;101758.94;4967203;23;124045;-70
2021/06/01 08:10:05;;;;;;;8.98;4.40;;;;;;;26.07;31.59;101762.34;4948656;28;119651;-69
2021/06/01 08:12:34;;;;;;;8.52;4.20;;;;;;;26.10;31.49;101751.16;4941233;28;118973;-69
2021/06/01 08:15:04;;;;;;;7.68;4.75;;;;;;;26.17;31.55;101757.72;4948163;28;123235;-69
2021/06/01 08:17:31;;;;;;;8.27;4.43;;;;;;;26.25;31.96;101747.97;4937458;28;123326;-69
2021/06/01 08:20:08;;;;;;;6.55;4.93;;;;;;;26.33;31.21;101745.34;4953027;28;119460;-70
2021/06/01 08:22:36;;;;;;;6.97;4.38;;;;;;;26.36;31.24;101739.63;4949822;28;118902;-69
2021/06/01 08:25:05;;;;;;;4.63;4.00;;;;;;;26.40;31.29;101741.03;4946918;28;123861;-69
2021/06/01 08:27:32;;;;;;;6.32;4.38;;;;;;;26.46;31.05;101745.84;4947981;28;123629;-70
2021/06/01 08:30:05;;;;;;;6.72;4.25;;;;;;;26.55;30.65;101739.53;4949142;28;119347;-70
2021/06/01 08:32:32;;;;;;;6.43;4.32;;;;;;;26.66;30.11;101735.78;4931603;28;118000;-70
2021/06/01 08:34:59;;;;;;;6.03;4.60;;;;;;;26.71;29.72;101738.03;4947877;28;124430;-71
2021/06/01 08:37:26;;;;;;;11.32;4.50;;;;;;;26.75;30.21;101736.72;4946097;28;124197;-71
2021/06/01 08:39:53;;;;;;;7.03;4.32;;;;;;;26.81;30.62;101733.38;4947363;28;118377;-70
2021/06/01 08:42:22;;;;;;;5.65;4.30;;;;;;;26.86;29.89;101736.50;4945584;28;118732;-70
2021/06/01 08:44:50;;;;;;;8.48;4.85;;;;;;;26.89;30.06;101730.75;4947168;28;124446;-70
2021/06/01 08:47:19;;;;;;;5.72;4.85;;;;;;;26.94;29.62;101728.41;4946445;28;123077;-70
2021/06/01 08:49:48;;;;;;;6.63;4.30;;;;;;;26.97;29.39;101733.56;4956980;28;119368;-70
2021/06/01 08:52:16;;;;;;;5.13;3.85;;;;;;;26.98;29.83;101731.69;4948351;28;119712;-70
2021/06/01 08:54:44;;;;;;;8.85;4.38;;;;;;;27.02;29.28;101732.22;4946183;28;124308;-70
2021/06/01 08:57:11;;;;;;;9.05;4.40;;;;;;;27.07;29.25;101721.72;4946486;28;123872;-70
2021/06/01 08:59:40;;;;;;;5.10;3.90;;;;;;;27.13;29.19;101721.13;4948127;28;118901;-70
2021/06/01 09:02:08;;;;;;;5.25;4.07;;;;;;;27.15;28.57;101727.25;4948586;28;118981;-70
2021/06/01 09:04:53;;;;;;;5.72;4.15;;;;;;;27.14;29.08;101723.69;4945890;28;123985;-70
2021/06/01 09:07:35;;;;;;;;;;;;;;;27.20;29.96;101727.66;4943539;28;123667;-70
2021/06/01 09:21:17;;;;;;;7.72;3.50;;;;;;;27.61;27.96;101703.47;4937572;28;119715;-70
2021/06/01 09:23:52;;;;;;;4.97;2.72;;;;;;;27.68;27.19;101704.53;4946798;28;119283;-70
2021/06/01 09:29:33;;;;;;;3.38;2.83;;;;;;;27.89;28.25;101700.63;4946574;28;124329;-71
2021/06/01 09:32:10;;;;;;;5.43;2.55;;;;;;;27.97;26.62;101703.38;4948348;28;119866;-71
2021/06/01 09:34:45;;;;;;;4.10;2.40;;;;;;;28.02;26.19;101706.47;4939292;28;118989;-70
2021/06/01 09:37:19;;;;;;;5.33;2.27;;;;;;;28.06;26.58;101696.94;4946854;28;123768;-70
2021/06/01 09:40:03;;;;;;;4.97;2.13;;;;;;;28.13;26.18;101698.00;4945553;28;123838;-71
2021/06/01 09:42:32;;;;;;;3.63;2.27;;;;;;;28.20;24.83;101694.63;4945099;28;120152;-70
2021/06/01 09:45:32;;;;;;;2.25;1.92;;;;;;;28.19;24.69;101701.09;4948854;28;119921;-70
2021/06/01 09:48:05;;;;;;;3.05;1.80;;;;;;;28.21;23.97;101688.16;4950558;28;123903;-71
2021/06/01 09:50:39;;;;;;;3.35;2.00;;;;;;;28.20;24.08;101691.91;4939791;28;124086;-70
2021/06/01 09:53:09;;;;;;;2.15;1.75;;;;;;;28.20;23.62;101691.91;4953800;28;119958;-70
2021/06/01 09:55:44;;;;;;;4.57;2.05;;;;;;;28.18;23.69;101683.91;4948968;28;119028;-71
2021/06/01 09:58:16;;;;;;;6.10;2.25;;;;;;;28.19;23.56;101701.09;4947987;28;124003;-71
2021/06/01 10:00:46;;;;;;;3.65;2.00;;;;;;;28.20;24.07;101686.44;4938921;28;124210;-71
2021/06/01 10:03:49;;;;;;;3.72;2.10;;;;;;;28.23;24.03;101686.97;4949146;28;119959;-71
2021/06/01 10:06:07;;;;;;;5.07;2.40;;;;;;;28.32;24.20;101685.13;4941040;28;119165;-70
2021/06/01 10:08:52;;;;;;;4.95;2.28;;;;;;;28.39;24.19;101677.13;4930368;28;122926;-71
2021/06/01 10:11:19;;;;;;;;;;;;;;;28.42;25.21;101674.94;4946531;28;124517;-70
2021/06/01 10:13:46;;;;;;;3.42;2.22;;;;;;;28.42;25.04;101669.50;4949148;28;120153;-71
2021/06/01 10:16:17;;;;;;;5.20;2.05;;;;;;;28.42;24.53;101672.22;4932350;28;118146;-71
2021/06/01 10:18:45;;;;;;;4.63;2.33;;;;;;;28.43;25.39;101660.31;4946485;28;123265;-71
2021/06/01 10:21:19;;;;;;;3.58;2.10;;;;;;;28.56;24.69;101658.97;4949953;28;124379;-71
2021/06/01 10:23:51;;;;;;;4.37;2.23;;;;;;;28.65;24.66;101657.97;4949863;28;119382;-69
2021/06/01 10:26:19;;;;;;;2.35;1.80;;;;;;;28.70;24.30;101655.59;4951512;28;118473;-69
2021/06/01 10:28:48;;;;;;;4.30;2.10;;;;;;;28.68;24.13;101653.03;4951061;28;124854;-69
2021/06/01 10:31:36;;;;;;;4.03;2.20;;;;;;;28.70;23.61;101641.97;4944099;28;124039;-70
2021/06/01 10:34:10;;;;;;;4.28;2.10;;;;;;;28.74;24.13;101651.53;4950973;28;121063;-71
2021/06/01 10:50:38;;;;;;;3.05;2.00;;;;;;;29.11;23.79;101636.53;4954344;28;124127;-69
2021/06/01 10:53:26;;;;;;;3.97;2.22;;;;;;;29.17;23.34;101641.31;4946513;28;123650;-70
2021/06/01 10:55:59;;;;;;;3.28;2.08;;;;;;;29.20;22.74;101635.53;4939927;28;120563;-70
2021/06/01 10:58:50;;;;;;;3.28;1.95;;;;;;;29.20;22.73;101641.00;4950994;28;119143;-70
2021/06/01 11:04:14;;;;;;;2.85;2.10;;;;;;;29.17;22.40;101635.88;4941627;28;124758;-70
2021/06/01 11:06:47;;;;;;;2.70;1.83;;;;;;;29.11;22.89;101631.06;4947258;28;119348;-70
2021/06/01 11:09:44;;;;;;;6.55;2.20;;;;;;;29.11;22.79;101631.91;4945183;28;118324;-70
2021/06/01 11:12:22;;;;;;;2.63;2.10;;;;;;;29.11;22.55;101620.16;4946619;28;125440;-70
2021/06/01 11:14:51;;;;;;;3.83;2.00;;;;;;;29.12;23.04;101621.84;4949474;28;124549;-69
2021/06/01 11:17:35;;;;;;;2.83;1.80;;;;;;;29.17;22.65;101619.50;4950679;28;119776;-71
2021/06/01 11:20:13;;;;;;;3.13;1.95;;;;;;;29.21;22.51;101618.13;4948854;28;119764;-72
2021/06/01 11:33:43;;;;;;;5.65;2.05;;;;;;;29.28;22.20;101600.03;4949258;28;124440;-69
2021/06/01 11:36:15;;;;;;;3.28;2.05;;;;;;;29.27;22.06;101598.34;4948732;28;123892;-70
2021/06/01 11:38:54;;;;;;;3.70;2.35;;;;;;;29.27;22.22;101601.06;4949055;28;119264;-69
2021/06/01 11:42:47;;;;;;;2.75;2.00;;;;;;;29.30;22.67;101587.06;4965220;28;118146;-69
2021/06/01 11:44:15;;;;;;;2.80;1.90;;;;;;;29.34;22.21;101592.19;4947836;28;121863;-69
2021/06/01 11:46:51;;;;;;;2.53;2.20;;;;;;;29.34;21.87;101586.72;4947032;28;122975;-69
2021/06/01 11:52:05;;;;;;;4.55;2.30;;;;;;;29.37;22.70;101580.94;4949380;28;119485;-70
2021/06/01 11:54:33;;;;;;;4.70;1.90;;;;;;;29.43;23.42;101585.69;4950495;28;124733;-70
2021/06/01 11:57:26;;;;;;;6.28;2.40;;;;;;;29.54;22.49;101582.56;4948074;28;124631;-70
2021/06/01 12:19:00;;;;;;;3.30;2.50;;;;;;;29.99;21.49;101564.66;4945237;28;124312;-69
2021/06/01 12:21:34;;;;;;;5.47;2.50;;;;;;;29.99;21.13;101559.19;4949958;28;120367;-70
2021/06/01 12:24:08;;;;;;;5.43;2.88;;;;;;;30.01;21.49;101562.56;4944841;28;119702;-70
2021/06/01 12:32:11;;;;;;;5.53;3.10;;;;;;;30.09;22.13;101545.28;4948941;28;119669;-70
2021/06/01 12:34:56;;;;;;;7.22;2.92;;;;;;;30.09;22.02;101543.38;4948127;28;118394;-70
2021/06/01 13:23:24;;;;;;;5.70;3.35;;;;;;;30.27;22.47;101498.50;4939447;28;124009;-70
2021/06/01 13:38:04;;;;;;;7.43;3.25;;;;;;;30.40;22.29;101479.66;4948032;28;124063;-70
2021/06/01 13:46:13;;;;;;;8.57;3.38;;;;;;;30.42;21.70;101477.59;4944138;28;123531;-70
2021/06/01 13:49:04;;;;;;;4.70;2.80;;;;;;;30.45;21.85;101471.75;4949231;28;126417;-70
2021/06/01 13:56:45;;;;;;;6.55;3.20;;;;;;;30.53;22.09;101472.72;4951105;28;123933;-71
2021/06/01 14:21:24;;;;;;;5.72;2.97;;;;;;;30.86;22.74;101441.25;4943918;28;124169;-70